sensor_id;sensor_type;location;lat;lon;timestamp;P1;durP1;ratioP1;P2;durP2;ratioP2
61527;SDS011;47395;42.032;-8.634;2022-11-28T10:34:28;7.72;;;5.72;;
61527;SDS011;47395;42.032;-8.634;2022-11-28T10:36:57;5.43;;;4.93;;
61527;SDS011;47395;42.032;-8.634;2022-11-28T10:39:11;6.43;;;5.88;;
61527;SDS011;47395;42.032;-8.634;2022-11-28T10:41:14;7.22;;;6.38;;
61527;SDS011;47395;42.032;-8.634;2022-11-28T10:43:31;6.82;;;5.78;;
61527;SDS011;47395;42.032;-8.634;2022-11-28T10:46:01;6.93;;;6.32;;
61527;SDS011;47395;42.032;-8.634;2022-11-28T11:01:43;9.38;;;8.13;;
61527;SDS011;47395;42.032;-8.634;2022-11-28T11:03:44;11.20;;;9.43;;
61527;SDS011;47395;42.032;-8.634;2022-11-28T11:05:45;12.35;;;7.78;;
61527;SDS011;47395;42.032;-8.634;2022-11-28T11:07:56;8.43;;;6.93;;
61527;SDS011;47395;42.032;-8.634;2022-11-28T11:10:14;8.93;;;7.82;;
61527;SDS011;47395;42.032;-8.634;2022-11-28T11:12:19;8.65;;;7.07;;
61527;SDS011;47395;42.032;-8.634;2022-11-28T11:14:33;9.18;;;7.53;;
61527;SDS011;47395;42.032;-8.634;2022-11-28T11:16:45;10.23;;;8.32;;
61527;SDS011;47395;42.032;-8.634;2022-11-28T11:18:50;8.37;;;7.33;;
61527;SDS011;47395;42.032;-8.634;2022-11-28T11:21:05;9.77;;;7.18;;
61527;SDS011;47395;42.032;-8.634;2022-11-28T11:23:19;8.52;;;6.90;;
61527;SDS011;47395;42.032;-8.634;2022-11-28T11:25:21;7.75;;;6.78;;
61527;SDS011;47395;42.032;-8.634;2022-11-28T11:27:24;10.10;;;6.78;;
61527;SDS011;47395;42.032;-8.634;2022-11-28T11:29:29;9.57;;;6.88;;
61527;SDS011;47395;42.032;-8.634;2022-11-28T11:31:41;7.53;;;6.72;;
61527;SDS011;47395;42.032;-8.634;2022-11-28T11:33:43;8.25;;;6.80;;
61527;SDS011;47395;42.032;-8.634;2022-11-28T11:35:46;9.85;;;8.38;;
61527;SDS011;47395;42.032;-8.634;2022-11-28T11:37:48;10.80;;;8.23;;
61527;SDS011;47395;42.032;-8.634;2022-11-28T11:39:51;8.30;;;7.43;;
61527;SDS011;47395;42.032;-8.634;2022-11-28T11:44:27;10.23;;;7.30;;
61527;SDS011;47395;42.032;-8.634;2022-11-28T11:46:35;7.15;;;6.50;;
61527;SDS011;47395;42.032;-8.634;2022-11-28T11:48:52;6.60;;;6.00;;
61527;SDS011;47395;42.032;-8.634;2022-11-28T11:50:53;6.60;;;6.05;;
61527;SDS011;47395;42.032;-8.634;2022-11-28T11:53:04;8.02;;;5.85;;
61527;SDS011;47395;42.032;-8.634;2022-11-28T11:55:13;9.18;;;7.18;;
61527;SDS011;47395;42.032;-8.634;2022-11-28T11:57:15;7.78;;;6.97;;
61527;SDS011;47395;42.032;-8.634;2022-11-28T11:59:43;9.27;;;8.38;;
61527;SDS011;47395;42.032;-8.634;2022-11-28T12:01:46;9.20;;;8.30;;
61527;SDS011;47395;42.032;-8.634;2022-11-28T12:03:54;11.02;;;8.27;;
61527;SDS011;47395;42.032;-8.634;2022-11-28T12:05:58;11.65;;;8.45;;
61527;SDS011;47395;42.032;-8.634;2022-11-28T12:08:27;8.88;;;7.80;;
61527;SDS011;47395;42.032;-8.634;2022-11-28T12:10:41;7.70;;;6.93;;
61527;SDS011;47395;42.032;-8.634;2022-11-28T12:12:48;8.60;;;6.35;;
61527;SDS011;47395;42.032;-8.634;2022-11-28T12:14:54;6.40;;;5.43;;
61527;SDS011;47395;42.032;-8.634;2022-11-28T12:17:05;9.45;;;5.00;;
61527;SDS011;47395;42.032;-8.634;2022-11-28T12:19:31;7.90;;;6.60;;
61527;SDS011;47395;42.032;-8.634;2022-11-28T12:22:05;7.35;;;6.63;;
61527;SDS011;47395;42.032;-8.634;2022-11-28T12:24:32;9.32;;;6.53;;
61527;SDS011;47395;42.032;-8.634;2022-11-28T12:29:29;17.17;;;8.23;;
61527;SDS011;47395;42.032;-8.634;2022-11-28T12:31:50;7.07;;;6.35;;
61527;SDS011;47395;42.032;-8.634;2022-11-28T12:35:16;9.60;;;7.05;;
61527;SDS011;47395;42.032;-8.634;2022-11-28T12:37:10;11.93;;;7.53;;
61527;SDS011;47395;42.032;-8.634;2022-11-28T12:42:51;8.25;;;7.45;;
61527;SDS011;47395;42.032;-8.634;2022-11-28T12:47:57;10.18;;;7.22;;
61527;SDS011;47395;42.032;-8.634;2022-11-28T12:50:23;7.55;;;6.72;;
61527;SDS011;47395;42.032;-8.634;2022-11-28T12:52:57;8.23;;;6.70;;
61527;SDS011;47395;42.032;-8.634;2022-11-28T12:55:32;8.55;;;6.57;;
61527;SDS011;47395;42.032;-8.634;2022-11-28T12:57:45;6.15;;;5.30;;
61527;SDS011;47395;42.032;-8.634;2022-11-28T13:05:10;8.05;;;4.28;;
61527;SDS011;47395;42.032;-8.634;2022-11-28T13:10:02;14.85;;;6.47;;
61527;SDS011;47395;42.032;-8.634;2022-11-28T13:14:52;18.50;;;4.03;;
61527;SDS011;47395;42.032;-8.634;2022-11-28T13:17:06;10.73;;;3.80;;
61527;SDS011;47395;42.032;-8.634;2022-11-28T13:21:38;15.40;;;3.58;;
61527;SDS011;47395;42.032;-8.634;2022-11-28T13:23:50;10.60;;;3.80;;
61527;SDS011;47395;42.032;-8.634;2022-11-28T13:26:12;14.65;;;4.90;;
61527;SDS011;47395;42.032;-8.634;2022-11-28T13:31:35;10.32;;;4.05;;
61527;SDS011;47395;42.032;-8.634;2022-11-28T13:33:54;10.38;;;4.40;;
61527;SDS011;47395;42.032;-8.634;2022-11-28T13:35:57;9.60;;;4.22;;
61527;SDS011;47395;42.032;-8.634;2022-11-28T13:38:22;10.77;;;4.32;;
61527;SDS011;47395;42.032;-8.634;2022-11-28T13:40:29;12.48;;;4.88;;
61527;SDS011;47395;42.032;-8.634;2022-11-28T13:44:55;12.45;;;5.28;;
61527;SDS011;47395;42.032;-8.634;2022-11-28T13:49:25;8.52;;;5.13;;
61527;SDS011;47395;42.032;-8.634;2022-11-28T13:51:29;9.65;;;5.75;;
61527;SDS011;47395;42.032;-8.634;2022-11-28T13:53:31;11.07;;;7.43;;
61527;SDS011;47395;42.032;-8.634;2022-11-28T13:55:39;11.25;;;6.20;;
61527;SDS011;47395;42.032;-8.634;2022-11-28T13:57:43;14.13;;;6.55;;
61527;SDS011;47395;42.032;-8.634;2022-11-28T13:59:48;7.57;;;5.20;;
61527;SDS011;47395;42.032;-8.634;2022-11-28T14:02:01;11.93;;;5.63;;
61527;SDS011;47395;42.032;-8.634;2022-11-28T14:04:08;9.18;;;4.55;;
61527;SDS011;47395;42.032;-8.634;2022-11-28T14:06:17;11.75;;;4.90;;
61527;SDS011;47395;42.032;-8.634;2022-11-28T14:08:36;8.05;;;4.25;;
61527;SDS011;47395;42.032;-8.634;2022-11-28T14:10:51;12.75;;;4.60;;
61527;SDS011;47395;42.032;-8.634;2022-11-28T14:18:54;17.63;;;3.85;;
61527;SDS011;47395;42.032;-8.634;2022-11-28T14:21:56;9.73;;;3.78;;
61527;SDS011;47395;42.032;-8.634;2022-11-28T14:26:42;6.47;;;3.75;;
61527;SDS011;47395;42.032;-8.634;2022-11-28T14:28:44;8.88;;;3.38;;
61527;SDS011;47395;42.032;-8.634;2022-11-28T14:30:46;11.95;;;3.25;;
61527;SDS011;47395;42.032;-8.634;2022-11-28T14:32:48;6.45;;;2.97;;
61527;SDS011;47395;42.032;-8.634;2022-11-28T14:35:01;5.28;;;2.40;;
61527;SDS011;47395;42.032;-8.634;2022-11-28T14:40:57;9.35;;;2.95;;
61527;SDS011;47395;42.032;-8.634;2022-11-28T14:42:46;7.88;;;2.58;;
61527;SDS011;47395;42.032;-8.634;2022-11-28T14:44:54;7.50;;;2.08;;
61527;SDS011;47395;42.032;-8.634;2022-11-28T14:47:05;9.85;;;2.65;;
61527;SDS011;47395;42.032;-8.634;2022-11-28T14:49:31;8.57;;;2.25;;
61527;SDS011;47395;42.032;-8.634;2022-11-28T14:54:11;4.40;;;2.72;;
61527;SDS011;47395;42.032;-8.634;2022-11-28T14:56:35;11.40;;;2.33;;
61527;SDS011;47395;42.032;-8.634;2022-11-28T14:58:36;9.50;;;3.17;;
61527;SDS011;47395;42.032;-8.634;2022-11-28T15:00:43;9.60;;;3.10;;
61527;SDS011;47395;42.032;-8.634;2022-11-28T15:05:40;8.60;;;3.42;;
61527;SDS011;47395;42.032;-8.634;2022-11-28T15:08:00;6.90;;;2.58;;
61527;SDS011;47395;42.032;-8.634;2022-11-28T15:13:20;8.20;;;3.13;;
61527;SDS011;47395;42.032;-8.634;2022-11-28T15:15:45;7.18;;;2.85;;
61527;SDS011;47395;42.032;-8.634;2022-11-28T15:17:49;7.18;;;2.78;;
61527;SDS011;47395;42.032;-8.634;2022-11-28T15:19:52;18.42;;;2.88;;
61527;SDS011;47395;42.032;-8.634;2022-11-28T15:21:58;6.38;;;2.53;;
61527;SDS011;47395;42.032;-8.634;2022-11-28T15:24:01;10.73;;;2.75;;
61527;SDS011;47395;42.032;-8.634;2022-11-28T15:26:35;8.50;;;2.92;;
61527;SDS011;47395;42.032;-8.634;2022-11-28T15:28:37;15.32;;;3.72;;
61527;SDS011;47395;42.032;-8.634;2022-11-28T15:30:53;10.95;;;2.67;;
61527;SDS011;47395;42.032;-8.634;2022-11-28T15:32:57;10.85;;;2.97;;
61527;SDS011;47395;42.032;-8.634;2022-11-28T15:34:59;12.80;;;3.58;;
61527;SDS011;47395;42.032;-8.634;2022-11-28T15:37:05;7.45;;;3.65;;
61527;SDS011;47395;42.032;-8.634;2022-11-28T15:39:34;8.52;;;3.97;;
61527;SDS011;47395;42.032;-8.634;2022-11-28T15:41:43;13.20;;;4.47;;
61527;SDS011;47395;42.032;-8.634;2022-11-28T15:43:48;8.15;;;3.38;;
61527;SDS011;47395;42.032;-8.634;2022-11-28T15:45:55;14.05;;;5.90;;
61527;SDS011;47395;42.032;-8.634;2022-11-28T15:48:00;12.38;;;4.93;;
61527;SDS011;47395;42.032;-8.634;2022-11-28T15:50:24;9.52;;;4.70;;
61527;SDS011;47395;42.032;-8.634;2022-11-28T15:52:27;5.88;;;3.45;;
61527;SDS011;47395;42.032;-8.634;2022-11-28T15:54:39;8.60;;;3.00;;
61527;SDS011;47395;42.032;-8.634;2022-11-28T15:56:55;8.02;;;4.43;;
61527;SDS011;47395;42.032;-8.634;2022-11-28T15:58:57;10.23;;;5.05;;
61527;SDS011;47395;42.032;-8.634;2022-11-28T16:01:00;11.30;;;3.70;;
61527;SDS011;47395;42.032;-8.634;2022-11-28T16:03:19;7.90;;;3.75;;
61527;SDS011;47395;42.032;-8.634;2022-11-28T16:05:22;10.63;;;3.97;;
61527;SDS011;47395;42.032;-8.634;2022-11-28T16:07:23;9.25;;;3.88;;
61527;SDS011;47395;42.032;-8.634;2022-11-28T16:09:26;7.38;;;3.72;;
61527;SDS011;47395;42.032;-8.634;2022-11-28T16:13:38;14.30;;;4.07;;
61527;SDS011;47395;42.032;-8.634;2022-11-28T16:15:44;11.93;;;3.70;;
61527;SDS011;47395;42.032;-8.634;2022-11-28T16:17:52;7.38;;;4.85;;
61527;SDS011;47395;42.032;-8.634;2022-11-28T16:20:27;14.27;;;4.75;;
61527;SDS011;47395;42.032;-8.634;2022-11-28T16:22:35;17.20;;;5.35;;
61527;SDS011;47395;42.032;-8.634;2022-11-28T16:24:52;12.43;;;3.75;;
61527;SDS011;47395;42.032;-8.634;2022-11-28T16:26:58;8.52;;;3.25;;
61527;SDS011;47395;42.032;-8.634;2022-11-28T16:31:23;15.00;;;3.88;;
61527;SDS011;47395;42.032;-8.634;2022-11-28T16:33:35;10.85;;;3.35;;
61527;SDS011;47395;42.032;-8.634;2022-11-28T16:35:38;9.73;;;3.63;;
61527;SDS011;47395;42.032;-8.634;2022-11-28T16:37:40;11.40;;;4.82;;
61527;SDS011;47395;42.032;-8.634;2022-11-28T16:39:41;6.95;;;3.97;;
61527;SDS011;47395;42.032;-8.634;2022-11-28T16:41:49;14.00;;;5.40;;
61527;SDS011;47395;42.032;-8.634;2022-11-28T16:44:11;16.17;;;5.13;;
61527;SDS011;47395;42.032;-8.634;2022-11-28T16:46:19;9.93;;;4.97;;
61527;SDS011;47395;42.032;-8.634;2022-11-28T16:48:22;13.70;;;6.22;;
61527;SDS011;47395;42.032;-8.634;2022-11-28T16:50:26;10.05;;;5.28;;
61527;SDS011;47395;42.032;-8.634;2022-11-28T16:54:54;18.85;;;7.88;;
61527;SDS011;47395;42.032;-8.634;2022-11-28T16:56:57;16.27;;;7.80;;
61527;SDS011;47395;42.032;-8.634;2022-11-28T16:59:18;22.05;;;8.68;;
61527;SDS011;47395;42.032;-8.634;2022-11-28T17:01:20;19.60;;;9.63;;
61527;SDS011;47395;42.032;-8.634;2022-11-28T17:03:38;26.95;;;11.85;;
61527;SDS011;47395;42.032;-8.634;2022-11-28T17:05:43;20.20;;;9.60;;
61527;SDS011;47395;42.032;-8.634;2022-11-28T17:07:44;18.45;;;7.90;;
61527;SDS011;47395;42.032;-8.634;2022-11-28T17:09:45;10.52;;;5.95;;
61527;SDS011;47395;42.032;-8.634;2022-11-28T17:11:57;12.25;;;5.38;;
61527;SDS011;47395;42.032;-8.634;2022-11-28T17:14:04;23.98;;;5.57;;
61527;SDS011;47395;42.032;-8.634;2022-11-28T17:16:08;11.15;;;4.70;;
61527;SDS011;47395;42.032;-8.634;2022-11-28T17:18:17;6.47;;;3.70;;
61527;SDS011;47395;42.032;-8.634;2022-11-28T17:20:18;15.55;;;4.80;;
61527;SDS011;47395;42.032;-8.634;2022-11-28T17:22:20;13.07;;;6.10;;
61527;SDS011;47395;42.032;-8.634;2022-11-28T17:24:25;16.27;;;8.93;;
61527;SDS011;47395;42.032;-8.634;2022-11-28T17:26:29;15.75;;;9.80;;
61527;SDS011;47395;42.032;-8.634;2022-11-28T17:28:29;17.77;;;10.85;;
61527;SDS011;47395;42.032;-8.634;2022-11-28T17:30:30;12.90;;;8.65;;
61527;SDS011;47395;42.032;-8.634;2022-11-28T17:32:34;17.20;;;7.38;;
61527;SDS011;47395;42.032;-8.634;2022-11-28T17:34:35;20.02;;;8.15;;
61527;SDS011;47395;42.032;-8.634;2022-11-28T17:36:38;28.55;;;10.05;;
61527;SDS011;47395;42.032;-8.634;2022-11-28T17:38:39;22.80;;;8.02;;
61527;SDS011;47395;42.032;-8.634;2022-11-28T17:40:40;11.75;;;6.47;;
61527;SDS011;47395;42.032;-8.634;2022-11-28T17:42:41;20.20;;;9.27;;
61527;SDS011;47395;42.032;-8.634;2022-11-28T17:44:42;21.83;;;9.95;;
61527;SDS011;47395;42.032;-8.634;2022-11-28T17:46:43;26.65;;;11.07;;
61527;SDS011;47395;42.032;-8.634;2022-11-28T17:48:44;24.85;;;12.18;;
61527;SDS011;47395;42.032;-8.634;2022-11-28T17:50:46;26.50;;;14.05;;
61527;SDS011;47395;42.032;-8.634;2022-11-28T17:52:49;20.92;;;11.77;;
61527;SDS011;47395;42.032;-8.634;2022-11-28T17:54:52;19.88;;;12.68;;
61527;SDS011;47395;42.032;-8.634;2022-11-28T17:57:03;25.40;;;13.30;;
61527;SDS011;47395;42.032;-8.634;2022-11-28T17:59:07;22.23;;;11.68;;
61527;SDS011;47395;42.032;-8.634;2022-11-28T18:01:13;23.30;;;10.70;;
61527;SDS011;47395;42.032;-8.634;2022-11-28T18:03:16;23.23;;;12.93;;
61527;SDS011;47395;42.032;-8.634;2022-11-28T18:05:17;26.88;;;14.52;;
61527;SDS011;47395;42.032;-8.634;2022-11-28T18:07:19;26.08;;;12.70;;
61527;SDS011;47395;42.032;-8.634;2022-11-28T18:09:20;20.95;;;11.43;;
61527;SDS011;47395;42.032;-8.634;2022-11-28T18:11:21;17.88;;;8.20;;
61527;SDS011;47395;42.032;-8.634;2022-11-28T18:13:23;21.35;;;10.85;;
61527;SDS011;47395;42.032;-8.634;2022-11-28T18:15:24;16.95;;;11.75;;
61527;SDS011;47395;42.032;-8.634;2022-11-28T18:17:27;23.30;;;11.07;;
61527;SDS011;47395;42.032;-8.634;2022-11-28T18:19:28;17.80;;;8.27;;
61527;SDS011;47395;42.032;-8.634;2022-11-28T18:21:29;19.15;;;8.15;;
61527;SDS011;47395;42.032;-8.634;2022-11-28T18:23:30;22.60;;;8.15;;
61527;SDS011;47395;42.032;-8.634;2022-11-28T18:25:31;17.95;;;7.40;;
61527;SDS011;47395;42.032;-8.634;2022-11-28T18:27:32;18.90;;;8.60;;
61527;SDS011;47395;42.032;-8.634;2022-11-28T18:29:34;16.80;;;9.30;;
61527;SDS011;47395;42.032;-8.634;2022-11-28T18:31:35;21.45;;;9.55;;
61527;SDS011;47395;42.032;-8.634;2022-11-28T18:33:37;21.90;;;14.38;;
61527;SDS011;47395;42.032;-8.634;2022-11-28T18:35:39;26.13;;;14.43;;
61527;SDS011;47395;42.032;-8.634;2022-11-28T18:37:40;29.85;;;19.80;;
61527;SDS011;47395;42.032;-8.634;2022-11-28T18:39:42;38.50;;;18.95;;
61527;SDS011;47395;42.032;-8.634;2022-11-28T18:41:42;37.70;;;18.95;;
61527;SDS011;47395;42.032;-8.634;2022-11-28T18:43:43;42.22;;;23.35;;
61527;SDS011;47395;42.032;-8.634;2022-11-28T18:45:44;43.78;;;22.60;;
61527;SDS011;47395;42.032;-8.634;2022-11-28T18:47:46;43.17;;;26.00;;
61527;SDS011;47395;42.032;-8.634;2022-11-28T18:49:50;39.38;;;23.58;;
61527;SDS011;47395;42.032;-8.634;2022-11-28T18:51:53;44.30;;;26.58;;
61527;SDS011;47395;42.032;-8.634;2022-11-28T18:53:56;41.83;;;26.40;;
61527;SDS011;47395;42.032;-8.634;2022-11-28T18:55:59;42.08;;;26.13;;
61527;SDS011;47395;42.032;-8.634;2022-11-28T18:58:01;47.63;;;25.23;;
61527;SDS011;47395;42.032;-8.634;2022-11-28T19:00:03;55.20;;;29.83;;
61527;SDS011;47395;42.032;-8.634;2022-11-28T19:02:05;50.63;;;30.05;;
61527;SDS011;47395;42.032;-8.634;2022-11-28T19:04:08;54.10;;;28.25;;
61527;SDS011;47395;42.032;-8.634;2022-11-28T19:06:11;56.75;;;28.48;;
61527;SDS011;47395;42.032;-8.634;2022-11-28T19:08:12;50.15;;;30.58;;
61527;SDS011;47395;42.032;-8.634;2022-11-28T19:10:17;64.05;;;39.10;;
61527;SDS011;47395;42.032;-8.634;2022-11-28T19:12:18;65.72;;;39.90;;
61527;SDS011;47395;42.032;-8.634;2022-11-28T19:14:20;70.03;;;41.50;;
61527;SDS011;47395;42.032;-8.634;2022-11-28T19:16:22;71.15;;;43.50;;
61527;SDS011;47395;42.032;-8.634;2022-11-28T19:18:24;77.15;;;43.03;;
61527;SDS011;47395;42.032;-8.634;2022-11-28T19:20:26;62.42;;;37.47;;
61527;SDS011;47395;42.032;-8.634;2022-11-28T19:22:27;65.07;;;34.67;;
61527;SDS011;47395;42.032;-8.634;2022-11-28T19:24:28;47.50;;;29.95;;
61527;SDS011;47395;42.032;-8.634;2022-11-28T19:26:30;45.75;;;27.58;;
61527;SDS011;47395;42.032;-8.634;2022-11-28T19:28:34;51.20;;;28.48;;
61527;SDS011;47395;42.032;-8.634;2022-11-28T19:30:36;45.60;;;27.30;;
61527;SDS011;47395;42.032;-8.634;2022-11-28T19:32:37;46.88;;;24.30;;
61527;SDS011;47395;42.032;-8.634;2022-11-28T19:34:38;30.80;;;20.95;;
61527;SDS011;47395;42.032;-8.634;2022-11-28T19:36:40;35.58;;;20.13;;
61527;SDS011;47395;42.032;-8.634;2022-11-28T19:38:43;34.15;;;20.77;;
61527;SDS011;47395;42.032;-8.634;2022-11-28T19:40:44;42.33;;;24.35;;
61527;SDS011;47395;42.032;-8.634;2022-11-28T19:42:45;56.83;;;33.50;;
61527;SDS011;47395;42.032;-8.634;2022-11-28T19:44:46;66.95;;;41.10;;
61527;SDS011;47395;42.032;-8.634;2022-11-28T19:46:47;59.50;;;36.35;;
61527;SDS011;47395;42.032;-8.634;2022-11-28T19:48:48;57.97;;;31.02;;
61527;SDS011;47395;42.032;-8.634;2022-11-28T19:50:51;44.30;;;26.95;;
61527;SDS011;47395;42.032;-8.634;2022-11-28T19:52:53;57.83;;;27.95;;
61527;SDS011;47395;42.032;-8.634;2022-11-28T19:54:54;48.00;;;30.00;;
61527;SDS011;47395;42.032;-8.634;2022-11-28T19:56:55;55.80;;;35.22;;
61527;SDS011;47395;42.032;-8.634;2022-11-28T19:58:57;51.35;;;32.13;;
61527;SDS011;47395;42.032;-8.634;2022-11-28T20:01:02;52.45;;;31.58;;
61527;SDS011;47395;42.032;-8.634;2022-11-28T20:03:06;50.47;;;30.98;;
61527;SDS011;47395;42.032;-8.634;2022-11-28T20:05:08;48.28;;;31.30;;
61527;SDS011;47395;42.032;-8.634;2022-11-28T20:07:09;52.22;;;30.10;;
61527;SDS011;47395;42.032;-8.634;2022-11-28T20:09:11;42.70;;;28.40;;
61527;SDS011;47395;42.032;-8.634;2022-11-28T20:11:25;48.75;;;28.30;;
61527;SDS011;47395;42.032;-8.634;2022-11-28T20:15:36;34.50;;;23.90;;
61527;SDS011;47395;42.032;-8.634;2022-11-28T20:17:37;46.50;;;24.13;;
61527;SDS011;47395;42.032;-8.634;2022-11-28T20:19:40;40.75;;;22.77;;
61527;SDS011;47395;42.032;-8.634;2022-11-28T20:21:43;36.83;;;23.50;;
61527;SDS011;47395;42.032;-8.634;2022-11-28T20:23:57;40.67;;;23.42;;
61527;SDS011;47395;42.032;-8.634;2022-11-28T20:26:06;48.15;;;27.10;;
61527;SDS011;47395;42.032;-8.634;2022-11-28T20:28:07;48.33;;;30.85;;
61527;SDS011;47395;42.032;-8.634;2022-11-28T20:30:08;40.35;;;27.27;;
61527;SDS011;47395;42.032;-8.634;2022-11-28T20:32:10;40.03;;;22.35;;
61527;SDS011;47395;42.032;-8.634;2022-11-28T20:34:12;31.50;;;20.08;;
61527;SDS011;47395;42.032;-8.634;2022-11-28T20:36:18;38.08;;;20.60;;
61527;SDS011;47395;42.032;-8.634;2022-11-28T20:38:27;36.38;;;20.67;;
61527;SDS011;47395;42.032;-8.634;2022-11-28T20:40:31;35.22;;;21.02;;
61527;SDS011;47395;42.032;-8.634;2022-11-28T20:42:33;32.55;;;22.10;;
61527;SDS011;47395;42.032;-8.634;2022-11-28T20:44:37;36.70;;;24.02;;
61527;SDS011;47395;42.032;-8.634;2022-11-28T20:46:38;44.20;;;27.27;;
61527;SDS011;47395;42.032;-8.634;2022-11-28T20:48:40;43.85;;;26.48;;
61527;SDS011;47395;42.032;-8.634;2022-11-28T20:50:42;46.30;;;28.50;;
61527;SDS011;47395;42.032;-8.634;2022-11-28T20:52:43;48.00;;;30.75;;
61527;SDS011;47395;42.032;-8.634;2022-11-28T20:54:44;40.25;;;27.85;;
61527;SDS011;47395;42.032;-8.634;2022-11-28T20:56:46;48.53;;;27.27;;
61527;SDS011;47395;42.032;-8.634;2022-11-28T20:58:48;44.13;;;26.52;;
61527;SDS011;47395;42.032;-8.634;2022-11-28T21:00:51;41.58;;;25.13;;
61527;SDS011;47395;42.032;-8.634;2022-11-28T21:02:52;38.28;;;24.45;;
61527;SDS011;47395;42.032;-8.634;2022-11-28T21:04:54;40.15;;;26.20;;
61527;SDS011;47395;42.032;-8.634;2022-11-28T21:06:56;44.13;;;25.35;;
61527;SDS011;47395;42.032;-8.634;2022-11-28T21:08:59;42.75;;;26.63;;
61527;SDS011;47395;42.032;-8.634;2022-11-28T21:11:03;45.78;;;25.95;;
61527;SDS011;47395;42.032;-8.634;2022-11-28T21:13:05;43.80;;;27.83;;
61527;SDS011;47395;42.032;-8.634;2022-11-28T21:15:08;66.70;;;38.42;;
61527;SDS011;47395;42.032;-8.634;2022-11-28T21:17:13;63.50;;;37.05;;
61527;SDS011;47395;42.032;-8.634;2022-11-28T21:19:15;54.85;;;32.47;;
61527;SDS011;47395;42.032;-8.634;2022-11-28T21:21:17;60.67;;;34.53;;
61527;SDS011;47395;42.032;-8.634;2022-11-28T21:23:25;56.35;;;34.25;;
61527;SDS011;47395;42.032;-8.634;2022-11-28T21:25:28;65.70;;;36.35;;
61527;SDS011;47395;42.032;-8.634;2022-11-28T21:27:29;65.18;;;38.10;;
61527;SDS011;47395;42.032;-8.634;2022-11-28T21:29:33;63.13;;;35.00;;
61527;SDS011;47395;42.032;-8.634;2022-11-28T21:33:45;50.35;;;31.10;;
61527;SDS011;47395;42.032;-8.634;2022-11-28T21:35:48;55.38;;;28.60;;
61527;SDS011;47395;42.032;-8.634;2022-11-28T21:37:49;44.67;;;25.92;;
61527;SDS011;47395;42.032;-8.634;2022-11-28T21:39:50;46.55;;;26.63;;
61527;SDS011;47395;42.032;-8.634;2022-11-28T21:41:51;46.42;;;27.60;;
61527;SDS011;47395;42.032;-8.634;2022-11-28T21:43:55;45.75;;;28.25;;
61527;SDS011;47395;42.032;-8.634;2022-11-28T21:46:03;53.25;;;28.33;;
61527;SDS011;47395;42.032;-8.634;2022-11-28T21:48:05;55.10;;;31.23;;
61527;SDS011;47395;42.032;-8.634;2022-11-28T21:50:08;69.40;;;36.00;;
61527;SDS011;47395;42.032;-8.634;2022-11-28T21:52:12;70.50;;;37.08;;
61527;SDS011;47395;42.032;-8.634;2022-11-28T21:54:15;66.55;;;37.20;;
61527;SDS011;47395;42.032;-8.634;2022-11-28T21:56:18;59.90;;;38.08;;
61527;SDS011;47395;42.032;-8.634;2022-11-28T21:58:20;56.63;;;37.08;;
61527;SDS011;47395;42.032;-8.634;2022-11-28T22:00:21;58.35;;;35.50;;
61527;SDS011;47395;42.032;-8.634;2022-11-28T22:02:25;65.85;;;34.85;;
61527;SDS011;47395;42.032;-8.634;2022-11-28T22:04:26;52.72;;;32.40;;
61527;SDS011;47395;42.032;-8.634;2022-11-28T22:06:28;48.05;;;28.80;;
61527;SDS011;47395;42.032;-8.634;2022-11-28T22:08:29;52.83;;;28.63;;
61527;SDS011;47395;42.032;-8.634;2022-11-28T22:10:31;46.83;;;28.55;;
61527;SDS011;47395;42.032;-8.634;2022-11-28T22:12:32;48.35;;;28.88;;
61527;SDS011;47395;42.032;-8.634;2022-11-28T22:14:34;50.95;;;30.65;;
61527;SDS011;47395;42.032;-8.634;2022-11-28T22:16:34;48.38;;;29.45;;
61527;SDS011;47395;42.032;-8.634;2022-11-28T22:18:36;47.72;;;28.55;;
61527;SDS011;47395;42.032;-8.634;2022-11-28T22:20:37;53.10;;;30.33;;
61527;SDS011;47395;42.032;-8.634;2022-11-28T22:22:39;77.28;;;32.97;;
61527;SDS011;47395;42.032;-8.634;2022-11-28T22:24:40;51.97;;;30.08;;
61527;SDS011;47395;42.032;-8.634;2022-11-28T22:26:42;49.13;;;30.30;;
61527;SDS011;47395;42.032;-8.634;2022-11-28T22:28:43;51.95;;;30.50;;
61527;SDS011;47395;42.032;-8.634;2022-11-28T22:30:45;54.50;;;32.35;;
61527;SDS011;47395;42.032;-8.634;2022-11-28T22:32:46;57.20;;;31.98;;
61527;SDS011;47395;42.032;-8.634;2022-11-28T22:34:47;58.13;;;32.58;;
61527;SDS011;47395;42.032;-8.634;2022-11-28T22:36:48;50.72;;;31.77;;
61527;SDS011;47395;42.032;-8.634;2022-11-28T22:38:52;47.47;;;31.35;;
61527;SDS011;47395;42.032;-8.634;2022-11-28T22:40:54;52.22;;;31.27;;
61527;SDS011;47395;42.032;-8.634;2022-11-28T22:42:55;49.40;;;30.67;;
61527;SDS011;47395;42.032;-8.634;2022-11-28T22:44:56;59.80;;;31.60;;
61527;SDS011;47395;42.032;-8.634;2022-11-28T22:46:58;40.90;;;26.88;;
61527;SDS011;47395;42.032;-8.634;2022-11-28T22:48:59;52.72;;;28.10;;
61527;SDS011;47395;42.032;-8.634;2022-11-28T22:51:20;50.65;;;30.42;;
61527;SDS011;47395;42.032;-8.634;2022-11-28T22:53:24;53.05;;;29.33;;
61527;SDS011;47395;42.032;-8.634;2022-11-28T22:55:25;56.58;;;31.15;;
61527;SDS011;47395;42.032;-8.634;2022-11-28T22:57:26;47.97;;;27.70;;
61527;SDS011;47395;42.032;-8.634;2022-11-28T22:59:27;50.60;;;29.15;;
61527;SDS011;47395;42.032;-8.634;2022-11-28T23:01:33;44.10;;;27.58;;
61527;SDS011;47395;42.032;-8.634;2022-11-28T23:03:37;49.63;;;29.85;;
61527;SDS011;47395;42.032;-8.634;2022-11-28T23:05:38;45.75;;;27.67;;
61527;SDS011;47395;42.032;-8.634;2022-11-28T23:07:40;41.47;;;26.90;;
61527;SDS011;47395;42.032;-8.634;2022-11-28T23:09:41;49.53;;;28.38;;
61527;SDS011;47395;42.032;-8.634;2022-11-28T23:13:47;47.20;;;26.63;;
61527;SDS011;47395;42.032;-8.634;2022-11-28T23:15:50;44.40;;;27.73;;
61527;SDS011;47395;42.032;-8.634;2022-11-28T23:17:51;55.45;;;30.52;;
61527;SDS011;47395;42.032;-8.634;2022-11-28T23:19:52;49.50;;;28.92;;
61527;SDS011;47395;42.032;-8.634;2022-11-28T23:21:53;45.15;;;28.40;;
61527;SDS011;47395;42.032;-8.634;2022-11-28T23:23:55;48.10;;;30.92;;
61527;SDS011;47395;42.032;-8.634;2022-11-28T23:26:00;56.97;;;29.05;;
61527;SDS011;47395;42.032;-8.634;2022-11-28T23:28:02;64.65;;;28.63;;
61527;SDS011;47395;42.032;-8.634;2022-11-28T23:30:04;41.78;;;25.70;;
61527;SDS011;47395;42.032;-8.634;2022-11-28T23:32:06;39.42;;;24.92;;
61527;SDS011;47395;42.032;-8.634;2022-11-28T23:34:08;53.35;;;26.50;;
61527;SDS011;47395;42.032;-8.634;2022-11-28T23:36:15;46.63;;;26.23;;
61527;SDS011;47395;42.032;-8.634;2022-11-28T23:38:28;38.25;;;26.63;;
61527;SDS011;47395;42.032;-8.634;2022-11-28T23:40:29;44.97;;;28.13;;
61527;SDS011;47395;42.032;-8.634;2022-11-28T23:42:31;45.63;;;27.40;;
61527;SDS011;47395;42.032;-8.634;2022-11-28T23:44:32;48.83;;;28.02;;
61527;SDS011;47395;42.032;-8.634;2022-11-28T23:46:33;46.97;;;28.75;;
61527;SDS011;47395;42.032;-8.634;2022-11-28T23:48:33;44.28;;;28.70;;
61527;SDS011;47395;42.032;-8.634;2022-11-28T23:50:35;43.58;;;26.58;;
61527;SDS011;47395;42.032;-8.634;2022-11-28T23:52:35;42.75;;;27.77;;
61527;SDS011;47395;42.032;-8.634;2022-11-28T23:54:36;46.17;;;25.95;;
61527;SDS011;47395;42.032;-8.634;2022-11-28T23:56:37;36.80;;;25.75;;
61527;SDS011;47395;42.032;-8.634;2022-11-28T23:58:40;40.42;;;23.90;;
